Time;durP1;ratioP1;P1;durP2;ratioP2;P2;SDS_P1;SDS_P2;PMS_P1;PMS_P2;Temp;Humidity;BMP_temperature;BMP_pressure;BME280_temperature;BME280_humidity;BME280_pressure;Samples;Min_cycle;Max_cycle;Signal;HPM_P1;HPM_P2
2022/12/26 00:01:25;;;;;;;42.75;29.27;;;8.90;99.90;;;;;;5105668;28;20024;-78
2022/12/26 00:03:51;;;;;;;41.45;28.98;;;8.80;99.90;;;;;;5105441;28;20174;-77
2022/12/26 00:06:23;;;;;;;42.78;29.45;;;8.80;99.90;;;;;;5101127;28;20028;-77
2022/12/26 00:08:50;;;;;;;41.58;29.13;;;8.80;99.90;;;;;;5098184;28;20032;-77
2022/12/26 00:11:16;;;;;;;44.67;29.67;;;8.80;99.90;;;;;;5109136;28;20027;-77
2022/12/26 00:13:43;;;;;;;40.75;28.05;;;8.80;99.90;;;;;;5106899;28;20024;-77
2022/12/26 00:16:14;;;;;;;39.25;28.27;;;8.80;99.90;;;;;;5105679;27;20372;-77
2022/12/26 00:18:40;;;;;;;35.60;26.00;;;8.80;99.90;;;;;;5106367;28;20517;-77
2022/12/26 00:21:08;;;;;;;41.03;28.50;;;8.80;99.90;;;;;;5121767;27;20058;-77
2022/12/26 00:23:35;;;;;;;44.30;27.70;;;8.90;99.90;;;;;;5126073;27;20083;-77
2022/12/26 00:26:20;;;;;;;38.70;27.23;;;8.80;99.90;;;;;;5127024;27;20038;-77
2022/12/26 00:28:47;;;;;;;38.35;27.52;;;8.90;99.90;;;;;;5099683;28;20186;-77
2022/12/26 00:31:21;;;;;;;37.95;27.92;;;8.80;99.90;;;;;;5114485;28;20032;-77
2022/12/26 00:33:47;;;;;;;38.22;28.38;;;8.80;99.90;;;;;;5111608;28;20028;-77
2022/12/26 00:36:21;;;;;;;36.47;27.40;;;8.80;99.90;;;;;;5115645;28;20073;-77
2022/12/26 00:38:47;;;;;;;37.17;28.08;;;8.80;99.90;;;;;;5112168;28;20031;-77
2022/12/26 00:41:15;;;;;;;40.65;28.30;;;8.90;99.90;;;;;;5114253;28;20023;-77
2022/12/26 00:43:41;;;;;;;38.47;26.85;;;8.90;99.90;;;;;;5114951;28;20040;-77
2022/12/26 00:46:07;;;;;;;40.40;27.25;;;8.90;99.90;;;;;;5115441;28;20033;-77
2022/12/26 00:48:34;;;;;;;41.20;27.73;;;8.80;99.90;;;;;;5114253;28;20034;-77
2022/12/26 00:51:00;;;;;;;36.33;26.73;;;8.80;99.90;;;;;;5110133;28;20024;-77
2022/12/26 00:53:26;;;;;;;36.00;26.90;;;8.90;99.90;;;;;;5110593;28;20028;-77
2022/12/26 00:55:57;;;;;;;42.35;28.08;;;8.90;99.90;;;;;;5103579;28;20027;-77
2022/12/26 00:58:23;;;;;;;34.60;25.98;;;8.90;99.90;;;;;;5110797;28;20020;-77
2022/12/26 01:00:49;;;;;;;41.40;27.17;;;8.90;99.90;;;;;;5110519;28;20051;-77
2022/12/26 01:03:16;;;;;;;38.22;27.23;;;8.90;99.90;;;;;;5109750;28;20028;-77
2022/12/26 01:05:43;;;;;;;37.65;27.17;;;8.90;99.90;;;;;;5113758;28;20028;-78
2022/12/26 01:08:09;;;;;;;37.08;26.77;;;8.90;99.90;;;;;;5097879;28;20031;-77
2022/12/26 01:10:35;;;;;;;39.38;28.73;;;8.90;99.90;;;;;;5094470;28;20036;-78
2022/12/26 01:13:01;;;;;;;36.42;25.58;;;8.90;99.90;;;;;;5095905;28;20384;-78
2022/12/26 01:15:32;;;;;;;35.42;25.85;;;8.90;99.90;;;;;;5104014;28;20092;-78
2022/12/26 01:17:59;;;;;;;36.50;26.60;;;8.90;99.90;;;;;;5117573;27;20024;-78
2022/12/26 01:20:27;;;;;;;37.60;26.38;;;8.80;99.90;;;;;;5103905;28;20114;-78
2022/12/26 01:22:55;;;;;;;34.88;26.10;;;8.80;99.90;;;;;;5104585;28;20020;-78
2022/12/26 01:25:32;;;;;;;32.97;25.48;;;8.90;99.90;;;;;;5099813;28;20520;-78
2022/12/26 01:27:59;;;;;;;38.00;26.75;;;8.90;99.90;;;;;;5100196;28;20028;-77
2022/12/26 01:30:25;;;;;;;35.08;26.65;;;8.80;99.90;;;;;;5102489;28;20042;-78
2022/12/26 01:32:50;;;;;;;38.38;28.33;;;8.70;99.90;;;;;;5097615;28;20034;-77
2022/12/26 01:35:16;;;;;;;37.13;26.23;;;8.70;99.90;;;;;;5100647;28;20040;-78
2022/12/26 01:37:42;;;;;;;37.63;26.73;;;8.70;99.90;;;;;;5094145;28;20637;-78
2022/12/26 01:40:10;;;;;;;37.72;27.52;;;8.70;99.90;;;;;;5094188;28;20356;-78
2022/12/26 01:42:40;;;;;;;37.65;26.63;;;8.70;99.90;;;;;;5098165;28;20020;-78
2022/12/26 01:45:25;;;;;;;41.53;28.58;;;8.70;99.90;;;;;;5092581;28;20059;-78
2022/12/26 01:48:02;;;;;;;37.65;26.63;;;8.80;99.90;;;;;;5096295;28;20050;-78
2022/12/26 01:50:56;;;;;;;34.13;25.98;;;8.80;99.90;;;;;;5114400;28;20395;-78
2022/12/26 01:53:30;;;;;;;36.83;25.30;;;8.80;99.90;;;;;;5114226;28;20027;-78
2022/12/26 01:56:02;;;;;;;35.63;25.73;;;8.80;99.90;;;;;;5096032;28;20024;-78
2022/12/26 01:58:49;;;;;;;;;;;8.80;99.90;;;;;;5094026;28;20016;-78
2022/12/26 02:01:17;;;;;;;34.85;26.63;;;8.80;99.90;;;;;;5093648;28;19904;-78
2022/12/26 02:06:30;;;;;;;33.83;24.63;;;8.80;99.90;;;;;;5100776;28;20088;-78
2022/12/26 02:08:57;;;;;;;32.97;23.98;;;8.80;99.90;;;;;;5105345;28;20027;-78
2022/12/26 02:11:34;;;;;;;31.52;24.42;;;8.80;99.90;;;;;;5113509;28;20578;-78
2022/12/26 02:14:01;;;;;;;36.05;25.60;;;8.80;99.90;;;;;;5109037;28;20024;-78
2022/12/26 02:16:27;;;;;;;31.50;24.30;;;8.80;99.90;;;;;;5093233;28;20078;-78
2022/12/26 02:18:52;;;;;;;35.60;24.42;;;8.80;99.90;;;;;;5093472;28;20109;-78
2022/12/26 02:21:33;;;;;;;34.83;24.00;;;8.80;99.90;;;;;;5093443;28;20026;-78
2022/12/26 02:24:34;;;;;;;33.35;23.50;;;8.80;99.90;;;;;;5092103;28;20491;-78
2022/12/26 02:27:21;;;;;;;33.90;23.88;;;8.90;99.90;;;;;;5078366;28;20047;-78
2022/12/26 02:30:24;;;;;;;34.72;22.73;;;8.90;99.90;;;;;;5113612;28;20539;-78
2022/12/26 02:32:49;;;;;;;;;;;8.80;99.90;;;;;;5096774;28;20028;-78
2022/12/26 02:35:39;;;;;;;30.20;22.25;;;8.90;99.90;;;;;;5108955;28;19973;-78
2022/12/26 02:38:55;;;;;;;27.85;21.27;;;8.80;99.90;;;;;;5091716;28;20028;-78
2022/12/26 02:41:39;;;;;;;33.75;26.00;;;8.80;99.90;;;;;;5095794;28;20042;-78
2022/12/26 02:47:27;;;;;;;29.95;22.30;;;8.80;99.90;;;;;;5093061;28;20426;-78
2022/12/26 03:13:23;;;;;;;29.05;20.88;;;8.80;99.90;;;;;;5092743;28;20050;-78
2022/12/26 03:18:45;;;;;;;28.58;20.55;;;8.80;99.90;;;;;;5107173;28;20073;-78
2022/12/26 03:21:12;;;;;;;29.13;22.23;;;8.80;99.90;;;;;;5101676;28;20024;-78
2022/12/26 03:23:41;;;;;;;29.60;21.15;;;8.80;99.90;;;;;;5093631;28;20051;-78
2022/12/26 03:30:47;;;;;;;28.48;21.38;;;8.80;99.90;;;;;;5117218;28;20111;-78
2022/12/26 03:31:44;;;;;;;30.42;21.15;;;8.80;99.90;;;;;;5116461;28;20054;-78
2022/12/26 03:34:16;;;;;;;24.48;19.98;;;8.80;99.90;;;;;;5108573;28;20024;-78
2022/12/26 03:37:03;;;;;;;29.80;19.85;;;8.80;99.90;;;;;;5094738;28;20031;-78
2022/12/26 04:46:52;;;;;;;25.33;18.85;;;8.80;99.90;;;;;;5082898;28;20534;-78
2022/12/26 04:52:05;;;;;;;25.13;19.13;;;8.70;99.90;;;;;;5101381;28;20043;-78
2022/12/26 04:54:31;;;;;;;24.63;19.83;;;8.80;99.90;;;;;;5103597;28;20081;-78
2022/12/26 04:56:57;;;;;;;24.65;18.95;;;8.70;99.90;;;;;;5094593;28;20035;-78
2022/12/26 04:59:23;;;;;;;22.00;18.80;;;8.70;99.90;;;;;;5105840;28;20078;-78
2022/12/26 05:10:15;;;;;;;23.13;18.00;;;8.80;99.90;;;;;;5112637;28;20046;-78
2022/12/26 05:12:41;;;;;;;23.63;18.17;;;8.70;99.90;;;;;;5106481;28;20433;-78
2022/12/26 05:15:07;;;;;;;23.13;18.50;;;8.70;99.90;;;;;;5114767;28;20030;-78
2022/12/26 05:28:52;;;;;;;22.98;18.35;;;8.80;99.90;;;;;;5105832;28;20076;-78
2022/12/26 05:31:17;;;;;;;24.75;19.38;;;8.80;99.90;;;;;;5107349;28;20073;-78
2022/12/26 05:36:40;;;;;;;26.83;20.27;;;8.80;99.90;;;;;;5114083;28;20077;-78
2022/12/26 05:39:07;;;;;;;23.88;17.50;;;8.80;99.90;;;;;;5114591;28;20103;-78
2022/12/26 05:41:33;;;;;;;23.48;18.60;;;8.80;99.90;;;;;;5105124;28;20031;-78
2022/12/26 05:43:59;;;;;;;21.30;18.10;;;8.70;99.90;;;;;;5104874;28;20054;-78
2022/12/26 05:46:25;;;;;;;25.38;19.27;;;8.70;99.90;;;;;;5110372;28;20031;-78
2022/12/26 05:48:50;;;;;;;28.08;18.92;;;8.70;99.90;;;;;;5114352;28;20051;-78
2022/12/26 05:51:16;;;;;;;25.65;20.23;;;8.80;99.90;;;;;;5104973;28;20658;-78
2022/12/26 05:53:42;;;;;;;22.60;17.67;;;8.80;99.90;;;;;;5108604;28;20062;-78
2022/12/26 05:56:11;;;;;;;23.83;19.33;;;8.70;99.90;;;;;;5113972;28;20027;-78
2022/12/26 05:58:38;;;;;;;25.02;19.35;;;8.70;99.90;;;;;;5098042;28;20024;-78
2022/12/26 06:01:18;;;;;;;25.67;20.42;;;8.70;99.90;;;;;;5104887;28;20032;-78
2022/12/26 06:03:49;;;;;;;22.77;18.27;;;8.70;99.90;;;;;;5096647;28;20023;-78
2022/12/26 06:06:16;;;;;;;25.77;18.25;;;8.70;99.90;;;;;;5095263;28;20027;-78
2022/12/26 06:08:42;;;;;;;22.23;18.58;;;8.60;99.90;;;;;;5114060;28;20471;-78
2022/12/26 06:11:12;;;;;;;23.92;18.40;;;8.60;99.90;;;;;;5113766;28;20055;-78
2022/12/26 06:13:39;;;;;;;27.27;19.35;;;8.60;99.90;;;;;;5113981;28;20024;-78
2022/12/26 06:16:06;;;;;;;26.65;20.10;;;8.60;99.90;;;;;;5113847;28;20028;-78
2022/12/26 06:18:32;;;;;;;29.75;22.02;;;8.60;99.90;;;;;;5108080;28;20020;-78
2022/12/26 06:20:58;;;;;;;28.17;21.48;;;8.70;99.90;;;;;;5108259;28;20072;-78
2022/12/26 06:23:24;;;;;;;28.25;21.77;;;8.70;99.90;;;;;;5100169;28;20016;-78
2022/12/26 06:25:57;;;;;;;29.02;21.30;;;8.70;99.90;;;;;;5091997;28;20035;-78
2022/12/26 06:28:23;;;;;;;25.60;20.17;;;8.70;99.90;;;;;;5092084;28;20068;-78
2022/12/26 06:30:50;;;;;;;29.15;20.73;;;8.70;99.90;;;;;;5093374;28;20028;-78
2022/12/26 06:33:16;;;;;;;26.17;19.88;;;8.70;99.90;;;;;;5097649;28;20479;-78
2022/12/26 06:35:41;;;;;;;24.13;19.75;;;8.60;99.90;;;;;;5095635;28;20032;-78
2022/12/26 06:38:07;;;;;;;28.35;21.75;;;8.60;99.90;;;;;;5091898;28;20023;-79
2022/12/26 06:40:33;;;;;;;29.40;22.55;;;8.60;99.90;;;;;;5091920;28;20035;-78
2022/12/26 06:42:58;;;;;;;33.25;24.48;;;8.70;99.90;;;;;;5092704;28;20052;-78
2022/12/26 06:45:24;;;;;;;30.20;21.60;;;8.60;99.90;;;;;;5092406;28;20522;-78
2022/12/26 06:47:50;;;;;;;30.73;22.70;;;8.60;99.90;;;;;;5104806;28;20072;-78
2022/12/26 06:50:16;;;;;;;28.25;21.50;;;8.60;99.90;;;;;;5111985;28;20053;-78
2022/12/26 06:52:41;;;;;;;27.42;20.70;;;8.60;99.90;;;;;;5101572;28;20383;-78
2022/12/26 06:55:07;;;;;;;28.70;21.70;;;8.60;99.90;;;;;;5100199;28;20475;-78
2022/12/26 06:57:33;;;;;;;27.05;20.98;;;8.60;99.90;;;;;;5113141;28;20103;-78
2022/12/26 06:59:59;;;;;;;27.17;20.40;;;8.70;99.90;;;;;;5101642;28;20128;-78
2022/12/26 07:02:24;;;;;;;24.17;19.48;;;8.70;99.90;;;;;;5091760;28;20024;-78
2022/12/26 07:04:50;;;;;;;25.85;19.42;;;8.60;99.90;;;;;;5110443;28;20027;-78
2022/12/26 07:07:16;;;;;;;26.42;20.08;;;8.60;99.90;;;;;;5102884;28;20024;-78
2022/12/26 07:09:42;;;;;;;30.38;22.17;;;8.60;99.90;;;;;;5092799;28;20024;-78
2022/12/26 07:12:07;;;;;;;31.75;22.02;;;8.60;99.90;;;;;;5092654;28;20107;-78
2022/12/26 07:14:33;;;;;;;33.22;21.77;;;8.60;99.90;;;;;;5092688;28;20486;-78
2022/12/26 07:16:58;;;;;;;26.15;20.38;;;8.60;99.90;;;;;;5092663;28;20035;-78
2022/12/26 07:19:24;;;;;;;29.90;21.77;;;8.70;99.90;;;;;;5096981;28;20068;-78
2022/12/26 07:21:50;;;;;;;29.42;21.17;;;8.70;99.90;;;;;;5095885;28;20020;-77
2022/12/26 07:24:20;;;;;;;39.58;27.08;;;8.70;99.90;;;;;;5092697;28;20146;-78
2022/12/26 07:26:48;;;;;;;42.17;29.42;;;8.70;99.90;;;;;;5091214;28;20032;-78
2022/12/26 07:29:14;;;;;;;43.13;28.95;;;8.70;99.90;;;;;;5096521;28;20099;-78
2022/12/26 07:31:41;;;;;;;49.35;31.27;;;8.70;99.90;;;;;;5101028;28;20496;-78
2022/12/26 07:34:07;;;;;;;43.28;29.05;;;8.70;99.90;;;;;;5106478;28;20031;-78
2022/12/26 07:36:33;;;;;;;39.47;27.05;;;8.70;99.90;;;;;;5100205;28;20028;-78
2022/12/26 07:38:58;;;;;;;36.78;25.85;;;8.70;99.90;;;;;;5103377;28;20024;-78
2022/12/26 07:44:09;;;;;;;33.88;25.45;;;8.70;99.90;;;;;;5110896;28;20075;-78
2022/12/26 07:46:35;;;;;;;31.98;24.58;;;8.70;99.90;;;;;;5098355;28;20023;-78
2022/12/26 07:49:02;;;;;;;36.13;25.70;;;8.70;99.90;;;;;;5112842;28;20073;-78
2022/12/26 07:51:28;;;;;;;38.45;25.83;;;8.70;99.90;;;;;;5111104;28;20027;-78
2022/12/26 07:53:54;;;;;;;46.83;30.88;;;8.70;99.90;;;;;;5110180;28;20106;-78
2022/12/26 07:56:19;;;;;;;49.40;31.58;;;8.70;99.90;;;;;;5102917;28;20025;-78
2022/12/26 07:58:49;;;;;;;45.78;32.08;;;8.70;99.90;;;;;;5092058;28;20031;-78
2022/12/26 08:01:15;;;;;;;49.20;34.05;;;8.70;99.90;;;;;;5101441;28;20031;-78
2022/12/26 08:03:41;;;;;;;51.83;34.30;;;8.80;99.90;;;;;;5110980;28;20038;-78
2022/12/26 08:06:09;;;;;;;53.78;34.70;;;8.80;99.90;;;;;;5099816;28;20023;-78
2022/12/26 08:08:36;;;;;;;56.60;35.50;;;8.70;99.90;;;;;;5108178;28;20012;-78
2022/12/26 08:11:07;;;;;;;59.45;37.50;;;8.80;99.90;;;;;;5096543;28;20020;-78
2022/12/26 08:13:33;;;;;;;55.10;35.40;;;8.80;99.90;;;;;;5110903;28;20028;-77
2022/12/26 08:16:02;;;;;;;61.42;37.55;;;8.90;99.90;;;;;;5095692;28;20360;-78
2022/12/26 08:18:28;;;;;;;58.88;38.05;;;8.80;99.90;;;;;;5095762;28;20024;-78
2022/12/26 08:20:56;;;;;;;61.22;37.78;;;8.80;99.90;;;;;;5109203;28;20024;-78
2022/12/26 08:23:22;;;;;;;61.20;38.35;;;8.90;99.90;;;;;;5116164;28;20042;-78
2022/12/26 08:25:47;;;;;;;62.28;38.75;;;8.90;99.90;;;;;;5114624;28;20031;-78
2022/12/26 08:28:13;;;;;;;69.57;43.70;;;8.90;99.90;;;;;;5114423;28;20114;-78
2022/12/26 08:30:40;;;;;;;67.63;42.13;;;8.90;99.90;;;;;;5115921;28;20114;-78
2022/12/26 08:33:06;;;;;;;68.30;42.53;;;8.90;99.90;;;;;;5113059;28;20020;-78
2022/12/26 08:35:39;;;;;;;71.57;43.47;;;8.90;99.90;;;;;;5096329;28;20024;-78
2022/12/26 08:38:05;;;;;;;66.03;41.45;;;8.90;99.90;;;;;;5095409;28;20016;-78
2022/12/26 08:40:31;;;;;;;63.67;42.05;;;9.00;99.90;;;;;;5094098;28;20107;-78
2022/12/26 08:42:57;;;;;;;64.30;39.58;;;9.00;99.90;;;;;;5095247;28;20024;-78
2022/12/26 08:45:23;;;;;;;67.18;43.20;;;9.00;99.90;;;;;;5095077;28;20097;-78
2022/12/26 08:47:50;;;;;;;67.00;43.00;;;9.00;99.90;;;;;;5094014;28;20074;-78
2022/12/26 08:50:16;;;;;;;64.00;41.92;;;9.00;99.90;;;;;;5095145;28;20483;-78
2022/12/26 08:52:42;;;;;;;63.55;40.92;;;9.10;99.90;;;;;;5103298;28;20028;-78
2022/12/26 08:55:09;;;;;;;61.63;39.10;;;9.10;99.90;;;;;;5093571;28;20066;-78
2022/12/26 08:57:35;;;;;;;56.53;37.78;;;9.10;99.90;;;;;;5093786;28;20109;-78
2022/12/26 09:00:00;;;;;;;54.47;37.67;;;9.10;99.90;;;;;;5094910;28;20109;-78
2022/12/26 09:02:26;;;;;;;60.33;39.00;;;9.20;99.90;;;;;;5094965;28;20020;-78
2022/12/26 09:04:52;;;;;;;62.78;38.67;;;9.20;99.90;;;;;;5108372;28;20020;-78
2022/12/26 09:07:17;;;;;;;58.03;38.15;;;9.20;99.90;;;;;;5109696;28;20051;-78
2022/12/26 09:09:44;;;;;;;60.45;36.90;;;9.30;99.90;;;;;;5115076;28;20424;-78
2022/12/26 09:12:09;;;;;;;62.88;39.00;;;9.30;99.90;;;;;;5110761;28;20027;-78
2022/12/26 09:14:35;;;;;;;66.05;40.78;;;9.30;99.90;;;;;;5114812;28;20015;-78
2022/12/26 09:17:01;;;;;;;61.00;42.58;;;9.30;99.90;;;;;;5113609;28;20027;-78
2022/12/26 09:19:31;;;;;;;68.57;43.17;;;9.30;99.90;;;;;;5114941;28;20111;-78
2022/12/26 09:24:42;;;;;;;71.60;43.85;;;9.30;99.90;;;;;;5115129;28;20076;-78
2022/12/26 09:27:08;;;;;;;66.28;42.65;;;9.30;99.90;;;;;;5114605;28;20062;-78
2022/12/26 09:29:36;;;;;;;67.65;43.60;;;9.30;99.90;;;;;;5114732;28;20023;-78
2022/12/26 09:32:02;;;;;;;63.90;44.08;;;9.30;99.90;;;;;;5114763;28;20020;-78
2022/12/26 09:34:28;;;;;;;71.32;44.08;;;9.30;99.90;;;;;;5098587;28;20024;-78
2022/12/26 09:36:54;;;;;;;74.65;45.15;;;9.30;99.90;;;;;;5098215;28;20441;-78
2022/12/26 09:39:20;;;;;;;64.75;43.17;;;9.40;99.90;;;;;;5114571;28;20016;-78
2022/12/26 09:41:51;;;;;;;61.78;42.55;;;9.40;99.90;;;;;;5114381;28;20060;-78
2022/12/26 09:44:46;;;;;;;69.25;46.05;;;9.40;99.90;;;;;;5112681;28;20051;-78
2022/12/26 09:47:24;;;;;;;69.88;44.15;;;9.50;99.90;;;;;;5112828;28;20032;-78
2022/12/26 09:49:57;;;;;;;60.95;41.38;;;9.50;99.90;;;;;;5101461;28;20040;-76
2022/12/26 09:52:34;;;;;;;71.65;43.08;;;9.50;99.90;;;;;;5104265;28;20028;-76
2022/12/26 09:55:05;;;;;;;67.53;43.20;;;9.50;99.90;;;;;;5111347;28;20371;-77
2022/12/26 09:57:42;;;;;;;67.63;42.58;;;9.60;99.90;;;;;;5107466;28;20031;-77
2022/12/26 10:00:17;;;;;;;67.60;42.00;;;9.60;99.90;;;;;;5113876;28;20023;-76
2022/12/26 10:02:45;;;;;;;68.57;45.17;;;9.60;99.90;;;;;;5114060;28;20027;-77
2022/12/26 10:05:13;;;;;;;72.07;44.65;;;9.60;99.90;;;;;;5108663;28;20038;-77
2022/12/26 10:07:47;;;;;;;64.60;44.65;;;9.60;99.90;;;;;;5113498;28;20501;-77
2022/12/26 10:10:38;;;;;;;72.35;45.05;;;9.60;99.90;;;;;;5109431;28;20023;-77
2022/12/26 10:13:36;;;;;;;70.28;44.90;;;9.70;99.90;;;;;;5101696;28;20031;-76
2022/12/26 10:16:25;;;;;;;69.78;45.08;;;9.70;99.90;;;;;;5100582;28;20027;-76
2022/12/26 10:19:17;;;;;;;67.30;43.90;;;9.70;99.90;;;;;;5106130;28;20020;-77
2022/12/26 10:21:48;;;;;;;65.70;44.65;;;9.70;99.90;;;;;;5115912;27;20054;-77
2022/12/26 10:24:18;;;;;;;66.72;44.55;;;9.70;99.90;;;;;;5100924;28;20029;-76
2022/12/26 10:26:49;;;;;;;66.60;43.72;;;9.70;99.90;;;;;;5102175;28;20054;-77
2022/12/26 10:29:24;;;;;;;67.00;43.80;;;9.80;99.90;;;;;;5104250;27;20493;-77
2022/12/26 10:31:56;;;;;;;63.38;42.50;;;9.80;99.90;;;;;;5122876;27;20114;-77
2022/12/26 10:34:53;;;;;;;66.85;43.65;;;9.80;99.90;;;;;;5104108;28;20032;-76
2022/12/26 10:37:21;;;;;;;64.18;43.67;;;9.80;99.90;;;;;;5108091;28;20256;-76
2022/12/26 10:40:00;;;;;;;64.57;43.08;;;9.90;99.90;;;;;;5107271;28;20030;-76
2022/12/26 10:42:32;;;;;;;63.30;42.00;;;9.90;99.90;;;;;;5107487;28;20032;-76
2022/12/26 10:44:59;;;;;;;66.70;43.53;;;9.90;99.90;;;;;;5112893;28;20112;-76
2022/12/26 10:47:40;;;;;;;68.75;40.60;;;9.90;99.90;;;;;;5108535;28;20024;-76
2022/12/26 10:50:13;;;;;;;64.20;41.38;;;9.90;99.90;;;;;;5112321;28;20031;-77
2022/12/26 10:52:39;;;;;;;62.22;40.83;;;9.90;99.90;;;;;;5095441;28;20032;-76
2022/12/26 10:55:06;;;;;;;66.80;40.88;;;9.90;99.90;;;;;;5103591;28;20028;-76
2022/12/26 10:57:35;;;;;;;65.97;41.72;;;10.00;99.90;;;;;;5111891;28;20043;-76
2022/12/26 11:00:13;;;;;;;66.88;44.13;;;10.00;99.90;;;;;;5113341;28;20106;-76
2022/12/26 11:02:38;;;;;;;69.85;43.40;;;10.00;99.90;;;;;;5111497;28;20043;-76
2022/12/26 11:05:08;;;;;;;68.88;42.35;;;10.00;99.90;;;;;;5108096;28;20020;-76
2022/12/26 11:07:49;;;;;;;63.72;42.85;;;10.00;99.90;;;;;;5092177;28;20024;-77
2022/12/26 11:10:25;;;;;;;66.75;43.15;;;10.10;99.90;;;;;;5103365;28;20028;-76
2022/12/26 11:12:55;;;;;;;66.78;44.55;;;10.10;99.90;;;;;;5094910;28;20097;-76
2022/12/26 11:15:45;;;;;;;64.60;43.92;;;10.00;99.90;;;;;;5117176;28;20081;-76
2022/12/26 11:18:38;;;;;;;67.68;45.08;;;10.00;99.90;;;;;;5133371;27;20161;-76
2022/12/26 11:21:16;;;;;;;72.53;46.33;;;10.00;99.90;;;;;;5102257;28;20077;-76
2022/12/26 11:23:47;;;;;;;74.82;46.15;;;10.00;99.90;;;;;;5094895;28;20024;-76
2022/12/26 11:26:21;;;;;;;72.18;46.83;;;10.10;99.90;;;;;;5100303;28;20062;-76
2022/12/26 11:28:47;;;;;;;68.50;45.15;;;10.10;99.90;;;;;;5112649;28;20051;-76
2022/12/26 11:31:25;;;;;;;74.38;47.22;;;10.10;99.90;;;;;;5102444;28;20025;-76
2022/12/26 11:33:52;;;;;;;71.40;45.92;;;10.10;99.90;;;;;;5099726;28;20169;-76
2022/12/26 11:36:22;;;;;;;69.40;44.30;;;10.10;99.90;;;;;;5098125;28;20391;-76
2022/12/26 11:39:05;;;;;;;71.90;46.80;;;10.10;99.90;;;;;;5099289;28;20388;-77
2022/12/26 11:41:34;;;;;;;73.20;45.90;;;10.10;99.90;;;;;;5092334;28;20360;-76
2022/12/26 11:44:10;;;;;;;74.68;45.88;;;10.10;99.90;;;;;;5105921;28;20059;-77
2022/12/26 11:47:05;;;;;;;73.20;47.45;;;10.10;99.90;;;;;;5103838;28;20382;-76
2022/12/26 11:50:00;;;;;;;74.38;46.65;;;10.10;99.90;;;;;;5116630;28;20024;-76
2022/12/26 11:52:50;;;;;;;71.75;47.15;;;10.00;99.90;;;;;;5109409;28;20110;-76
2022/12/26 11:55:27;;;;;;;71.75;46.92;;;10.00;99.90;;;;;;5105873;28;20616;-76
2022/12/26 11:58:05;;;;;;;68.65;46.65;;;10.00;99.90;;;;;;5101049;28;20047;-76
2022/12/26 12:00:50;;;;;;;68.57;47.15;;;10.00;99.90;;;;;;5112791;28;20046;-76
2022/12/26 12:03:18;;;;;;;70.80;47.38;;;10.10;99.90;;;;;;5100515;28;20020;-76
2022/12/26 12:06:02;;;;;;;73.50;47.45;;;10.10;99.90;;;;;;5094770;28;20020;-76
2022/12/26 12:08:44;;;;;;;79.82;50.60;;;10.10;99.90;;;;;;5109821;28;20028;-76
2022/12/26 12:11:16;;;;;;;75.72;50.22;;;10.10;99.90;;;;;;5114940;28;20024;-76
2022/12/26 12:13:54;;;;;;;80.30;50.72;;;10.10;99.90;;;;;;5114816;28;20077;-76
2022/12/26 12:16:29;;;;;;;79.53;50.75;;;10.10;99.90;;;;;;5111768;28;20044;-76
2022/12/26 12:19:18;;;;;;;81.38;51.78;;;10.10;99.90;;;;;;5095841;28;20028;-76
2022/12/26 12:21:50;;;;;;;78.57;52.88;;;10.10;99.90;;;;;;5111428;28;20359;-76
2022/12/26 12:24:44;;;;;;;77.28;50.47;;;10.10;99.90;;;;;;5116119;28;20015;-76
2022/12/26 12:27:16;;;;;;;78.25;51.55;;;10.10;99.90;;;;;;5115868;28;20032;-76
2022/12/26 12:29:59;;;;;;;81.43;51.13;;;10.10;99.90;;;;;;5114773;28;20479;-76
2022/12/26 12:32:47;;;;;;;73.90;51.40;;;10.10;99.90;;;;;;5115848;28;20062;-76
2022/12/26 12:35:48;;;;;;;87.57;54.72;;;10.00;99.90;;;;;;5107335;28;20012;-76
2022/12/26 12:38:28;;;;;;;83.00;55.42;;;10.10;99.90;;;;;;5109845;28;20384;-75
2022/12/26 12:41:15;;;;;;;85.00;55.50;;;10.10;99.90;;;;;;5109797;27;20065;-76
2022/12/26 12:43:55;;;;;;;89.50;56.25;;;10.10;99.90;;;;;;5114677;28;20044;-76
2022/12/26 12:46:53;;;;;;;86.95;54.72;;;10.10;99.90;;;;;;5105215;28;20027;-76
2022/12/26 12:49:37;;;;;;;84.45;55.70;;;10.10;99.90;;;;;;5117034;27;20031;-75
2022/12/26 12:52:24;;;;;;;85.75;56.78;;;10.10;99.90;;;;;;5119999;27;20026;-76
2022/12/26 12:55:13;;;;;;;90.97;59.25;;;10.10;99.90;;;;;;5093511;28;20043;-76
2022/12/26 12:57:48;;;;;;;85.78;58.50;;;10.10;99.90;;;;;;5092693;28;20032;-75
2022/12/26 13:00:22;;;;;;;95.90;60.42;;;10.10;99.90;;;;;;5103667;28;20674;-78
2022/12/26 13:02:54;;;;;;;89.30;58.70;;;10.10;99.90;;;;;;5112836;28;20015;-78
2022/12/26 13:05:38;;;;;;;87.82;56.75;;;10.10;99.90;;;;;;5112945;28;20027;-78
2022/12/26 13:08:11;;;;;;;86.70;55.78;;;10.10;99.90;;;;;;5112117;28;20020;-78
2022/12/26 13:10:45;;;;;;;86.10;56.55;;;10.10;99.90;;;;;;5113577;28;20608;-78
2022/12/26 13:13:33;;;;;;;88.35;56.45;;;10.10;99.90;;;;;;5125131;27;20027;-78
2022/12/26 13:16:24;;;;;;;87.35;58.63;;;10.10;99.90;;;;;;5093503;28;20055;-78
2022/12/26 13:19:06;;;;;;;91.30;57.97;;;10.10;99.90;;;;;;5111251;28;20032;-78
2022/12/26 13:21:36;;;;;;;84.33;54.50;;;10.10;99.90;;;;;;5110522;28;20020;-78
2022/12/26 13:24:22;;;;;;;91.32;57.80;;;10.10;99.90;;;;;;5113873;27;20020;-78
2022/12/26 13:27:04;;;;;;;84.45;55.60;;;10.10;99.90;;;;;;5108788;28;20032;-78
2022/12/26 13:29:39;;;;;;;82.70;55.88;;;10.10;99.90;;;;;;5106694;28;20028;-78
2022/12/26 13:32:20;;;;;;;90.70;58.75;;;10.10;99.90;;;;;;5114530;28;20026;-78
2022/12/26 13:34:47;;;;;;;91.88;57.20;;;10.10;99.90;;;;;;5108358;28;20036;-78
2022/12/26 13:37:39;;;;;;;89.28;58.63;;;10.10;99.90;;;;;;5106878;28;20027;-78
2022/12/26 13:40:10;;;;;;;88.57;58.17;;;10.10;99.90;;;;;;5101923;28;20095;-78
2022/12/26 13:45:55;;;;;;;87.50;57.58;;;10.10;99.90;;;;;;5100336;28;20055;-78
2022/12/26 13:48:20;;;;;;;90.90;60.35;;;10.10;99.90;;;;;;5101062;28;20131;-78
2022/12/26 13:50:54;;;;;;;93.38;59.75;;;10.00;99.90;;;;;;5101831;28;20522;-78
2022/12/26 13:53:23;;;;;;;96.22;61.95;;;10.00;99.90;;;;;;5100771;28;20035;-78
2022/12/26 13:55:54;;;;;;;91.05;59.25;;;10.00;99.90;;;;;;5101183;28;20061;-78
2022/12/26 13:58:30;;;;;;;91.22;61.30;;;10.00;99.90;;;;;;5100798;28;20020;-78
2022/12/26 14:01:38;;;;;;;91.55;61.10;;;10.00;99.90;;;;;;5098991;28;20028;-78
2022/12/26 14:04:38;;;;;;;94.80;58.00;;;10.00;99.90;;;;;;5096891;28;20027;-78
2022/12/26 14:07:06;;;;;;;93.43;59.85;;;10.10;99.90;;;;;;5104773;28;20378;-78
2022/12/26 14:10:04;;;;;;;93.72;60.25;;;10.00;99.90;;;;;;5100020;28;20027;-78
2022/12/26 14:12:33;;;;;;;92.10;58.72;;;10.10;99.90;;;;;;5098139;28;20414;-78
2022/12/26 14:15:07;;;;;;;91.47;59.80;;;10.00;99.90;;;;;;5102316;28;20167;-78
2022/12/26 14:17:51;;;;;;;98.35;63.00;;;10.00;99.90;;;;;;5101565;28;20124;-78
2022/12/26 14:20:48;;;;;;;92.90;60.17;;;10.00;99.90;;;;;;5100914;28;20097;-78
2022/12/26 14:23:31;;;;;;;92.75;59.63;;;10.00;99.90;;;;;;5099847;28;20036;-78
2022/12/26 14:26:10;;;;;;;93.68;59.28;;;10.00;99.90;;;;;;5100312;28;20055;-78
2022/12/26 14:28:41;;;;;;;94.18;57.28;;;10.00;99.90;;;;;;5104395;28;20023;-78
2022/12/26 14:31:25;;;;;;;93.35;58.22;;;10.00;99.90;;;;;;5101044;28;20092;-78
2022/12/26 14:33:55;;;;;;;100.28;64.25;;;10.00;99.90;;;;;;5100215;28;20028;-78
2022/12/26 14:36:36;;;;;;;97.47;63.58;;;10.00;99.90;;;;;;5102651;28;20035;-78
2022/12/26 14:39:29;;;;;;;93.68;60.25;;;10.00;99.90;;;;;;5101255;28;20024;-78
2022/12/26 14:44:56;;;;;;;92.80;57.85;;;10.00;99.90;;;;;;5100287;28;20054;-78
2022/12/26 14:47:42;;;;;;;93.82;59.40;;;10.00;99.90;;;;;;5102418;28;20031;-78
2022/12/26 14:50:31;;;;;;;97.05;62.42;;;10.00;99.90;;;;;;5098650;28;20093;-78
2022/12/26 14:53:28;;;;;;;97.32;60.20;;;10.00;99.90;;;;;;5101023;28;20032;-78
2022/12/26 14:55:54;;;;;;;97.32;61.63;;;10.00;99.90;;;;;;5099053;28;20510;-78
2022/12/26 14:58:38;;;;;;;91.80;59.83;;;10.00;99.90;;;;;;5101943;28;20020;-78
2022/12/26 15:01:19;;;;;;;98.45;62.95;;;10.00;99.90;;;;;;5100272;28;20050;-78
2022/12/26 15:04:06;;;;;;;95.82;61.15;;;10.00;99.90;;;;;;5102752;28;20031;-78
2022/12/26 15:06:49;;;;;;;90.15;61.83;;;10.00;99.90;;;;;;5100637;28;20581;-78
2022/12/26 15:09:27;;;;;;;91.43;59.88;;;9.90;99.90;;;;;;5100182;28;20031;-78
2022/12/26 15:12:21;;;;;;;96.30;61.40;;;9.90;99.90;;;;;;5100011;28;20025;-78
2022/12/26 15:15:26;;;;;;;96.57;60.17;;;9.90;99.90;;;;;;5115362;28;20034;-78
2022/12/26 15:18:06;;;;;;;98.85;62.72;;;9.90;99.90;;;;;;5019836;28;20061;-78
2022/12/26 15:21:06;;;;;;;88.88;58.30;;;9.90;99.90;;;;;;5022518;28;20033;-78
2022/12/26 15:23:40;;;;;;;99.07;61.60;;;9.90;99.90;;;;;;5090362;28;20027;-78
2022/12/26 15:26:43;;;;;;;89.18;58.63;;;9.80;99.90;;;;;;5103794;28;20020;-78